Time;durP1;ratioP1;P1;durP2;ratioP2;P2;SDS_P1;SDS_P2;PMS_P1;PMS_P2;Temp;Humidity;BMP_temperature;BMP_pressure;BME280_temperature;BME280_humidity;BME280_pressure;Samples;Min_cycle;Max_cycle;Signal;HPM_P1;HPM_P2
2021/12/22 00:02:01;;;;;;;22.52;10.88;;;;;;;-1.12;86.02;92926.94;4958570;28;20305;-88
2021/12/22 00:04:43;;;;;;;;;;;;;;;;;;;;;
2021/12/22 00:07:32;;;;;;;;;;;;;;;;;;;;;
2021/12/22 00:10:19;;;;;;;;;;;;;;;;;;;;;
2021/12/22 00:13:02;;;;;;;;;;;;;;;;;;;;;
2021/12/22 00:15:56;;;;;;;15.70;8.73;;;;;;;-1.28;85.06;92920.47;4956907;29;20043;-89
2021/12/22 00:18:34;;;;;;;;;;;;;;;;;;;;;
2021/12/22 00:21:23;;;;;;;17.40;8.65;;;;;;;-1.35;84.29;92908.63;4959132;28;20066;-88
2021/12/22 00:24:15;;;;;;;16.40;7.93;;;;;;;-1.37;84.42;92913.19;4972843;28;20102;-87
2021/12/22 00:26:48;;;;;;;17.02;9.18;;;;;;;-1.38;84.69;92917.53;4944838;28;20109;-88
2021/12/22 00:29:52;;;;;;;18.75;10.00;;;;;;;-1.43;85.43;92914.00;4944168;29;20455;-88
2021/12/22 00:32:55;;;;;;;17.65;9.93;;;;;;;-1.36;86.10;92930.19;4966127;28;20038;-88
2021/12/22 00:35:37;;;;;;;;;;;;;;;;;;;;;
2021/12/22 00:38:22;;;;;;;18.17;9.15;;;;;;;-1.12;86.00;92978.31;4980666;28;20043;-93
2021/12/22 00:40:59;;;;;;;17.85;8.88;;;;;;;-1.33;85.62;92945.97;4965405;28;20054;-89
2021/12/22 00:43:36;;;;;;;18.75;9.85;;;;;;;-1.63;86.14;92903.78;4933892;28;20049;-88
2021/12/22 00:46:05;;;;;;;17.95;9.93;;;;;;;-1.37;86.38;92944.81;4962196;28;20502;-88
2021/12/22 00:48:53;;;;;;;16.95;9.07;;;;;;;-1.65;86.63;92901.41;4928198;28;20050;-87
2021/12/22 00:51:41;;;;;;;15.68;9.15;;;;;;;-1.71;86.83;92884.25;4990836;28;20045;-88
2021/12/22 00:54:35;;;;;;;24.52;10.70;;;;;;;-1.63;87.72;92899.44;4954873;29;20093;-88
2021/12/22 00:57:24;;;;;;;18.85;9.40;;;;;;;-1.43;88.33;92940.47;4943852;28;20067;-88
2021/12/22 01:00:05;;;;;;;19.08;9.20;;;;;;;-1.75;87.40;92899.25;4946118;28;20059;-89
2021/12/22 01:02:55;;;;;;;21.65;7.97;;;;;;;-1.53;86.28;92930.63;4961021;28;20493;-88
2021/12/22 01:05:42;;;;;;;;;;;;;;;;;;;;;
2021/12/22 01:08:22;;;;;;;15.40;8.02;;;;;;;-1.83;84.56;92898.69;4993686;28;20491;-88
2021/12/22 01:10:52;;;;;;;14.05;7.65;;;;;;;-1.75;84.12;92908.75;4963340;28;20050;-89
2021/12/22 01:13:41;;;;;;;18.15;7.63;;;;;;;-1.89;82.84;92888.22;4973938;28;20046;-88
2021/12/22 01:16:57;;;;;;;13.38;6.65;;;;;;;-1.77;82.78;92914.06;4981949;28;20052;-88
2021/12/22 01:22:35;;;;;;;14.95;6.82;;;;;;;-1.69;82.76;92941.28;4989920;28;20067;-88
2021/12/22 01:25:15;;;;;;;11.20;5.88;;;;;;;-2.05;81.97;92882.72;4957962;28;20046;-88
2021/12/22 01:27:52;;;;;;;11.55;6.13;;;;;;;-2.04;80.81;92887.66;4971479;28;20073;-88
2021/12/22 01:30:27;;;;;;;9.48;5.70;;;;;;;-2.08;79.96;92883.91;4976638;28;20104;-87
2021/12/22 01:33:24;;;;;;;10.63;6.18;;;;;;;-2.09;80.04;92890.03;4960635;28;20073;-88
2021/12/22 01:36:06;;;;;;;11.82;5.68;;;;;;;-2.14;79.11;92887.25;4991739;28;20046;-88
2021/12/22 01:38:48;;;;;;;10.38;5.35;;;;;;;-1.95;79.40;92927.50;4976341;28;20506;-89
2021/12/22 01:41:47;;;;;;;10.73;5.32;;;;;;;-2.20;78.70;92888.06;4957923;28;20400;-89
2021/12/22 01:44:59;;;;;;;9.27;5.22;;;;;;;-1.85;79.28;92951.97;4971644;28;20056;-88
2021/12/22 01:50:56;;;;;;;9.40;4.80;;;;;;;-2.36;78.63;92895.16;4974252;28;20041;-88
2021/12/22 01:54:14;;;;;;;;;;;;;;;;;;;;;
2021/12/22 01:56:59;;;;;;;;;;;;;;;;;;;;;
2021/12/22 02:00:06;;;;;;;;;;;;;;;;;;;;;
2021/12/22 02:02:43;;;;;;;;;;;;;;;-1.92;78.39;92970.72;4981355;28;20136;-89
2021/12/22 02:05:32;;;;;;;;;;;;;;;;;;;;;
2021/12/22 02:08:30;;;;;;;8.38;4.53;;;;;;;-2.14;77.79;92951.38;4993787;28;20046;-89
2021/12/22 02:11:24;;;;;;;10.10;4.38;;;;;;;-2.44;77.34;92915.09;4983456;28;20081;-88
2021/12/22 02:14:07;;;;;;;10.05;5.18;;;;;;;-2.47;77.17;92915.50;4976337;28;20047;-88
2021/12/22 02:16:57;;;;;;;7.93;4.53;;;;;;;-2.51;77.05;92900.47;4979575;28;20514;-88
2021/12/22 02:19:51;;;;;;;11.05;5.18;;;;;;;-2.55;77.83;92906.97;4972836;28;20035;-88
2021/12/22 02:22:32;;;;;;;17.50;6.55;;;;;;;-2.55;78.70;92901.84;4962168;28;20043;-88
2021/12/22 02:28:31;;;;;;;12.73;6.22;;;;;;;-2.54;78.21;92907.78;4972302;28;20039;-88
2021/12/22 02:31:17;;;;;;;;;;;;;;;;;;;;;
2021/12/22 02:34:13;;;;;;;10.98;5.97;;;;;;;-2.53;79.11;92922.16;4974396;28;20035;-88
2021/12/22 02:37:09;;;;;;;;;;;;;;;;;;;;;
2021/12/22 02:40:10;;;;;;;;;;;;;;;;;;;;;
2021/12/22 02:42:52;;;;;;;10.63;5.70;;;;;;;-2.48;80.38;92944.66;4992461;28;20466;-89
2021/12/22 02:45:39;;;;;;;;;;;;;;;;;;;;;
2021/12/22 02:48:34;;;;;;;;;;;;;;;-2.15;81.49;92989.09;4982142;28;20063;-86
2021/12/22 02:51:27;;;;;;;10.07;5.63;;;;;;;-2.57;81.71;92919.22;4995999;28;19913;-88
2021/12/22 02:57:18;;;;;;;;;;;;;;;-2.14;82.79;92989.88;4987848;28;20041;-88
2021/12/22 03:00:45;;;;;;;;;;;;;;;;;;;;;
2021/12/22 03:07:15;;;;;;;14.30;6.38;;;;;;;-2.63;83.99;92922.56;4997822;28;20054;-89
2021/12/22 03:09:43;;;;;;;;;;;;;;;;;;;;;
2021/12/22 03:12:31;;;;;;;11.50;6.18;;;;;;;-2.39;84.04;92959.66;4986785;28;20031;-89
2021/12/22 03:15:31;;;;;;;13.13;7.28;;;;;;;-2.53;84.41;92945.25;4963709;28;20563;-88
2021/12/22 03:18:17;;;;;;;13.13;7.10;;;;;;;-2.65;84.58;92926.31;4961486;28;20042;-88
2021/12/22 03:20:50;;;;;;;12.57;7.15;;;;;;;-2.69;85.10;92917.41;4946313;28;20043;-89
2021/12/22 03:23:29;;;;;;;12.90;6.93;;;;;;;-2.36;85.44;92966.97;4962042;28;20129;-89
2021/12/22 03:26:44;;;;;;;13.88;7.45;;;;;;;-2.55;85.57;92944.66;4961396;28;20294;-89
2021/12/22 03:29:38;;;;;;;12.15;7.22;;;;;;;-2.22;86.38;92992.63;4976672;28;20090;-89
2021/12/22 03:33:11;;;;;;;;;;;;;;;;;;;;;
2021/12/22 03:35:39;;;;;;;;;;;;;;;;;;;;;
2021/12/22 03:38:39;;;;;;;;;;;;;;;;;;;;;
2021/12/22 03:41:13;;;;;;;18.08;8.40;;;;;;;-2.41;87.52;92968.53;4962028;28;20047;-88
2021/12/22 03:44:15;;;;;;;17.88;8.73;;;;;;;-2.63;87.55;92929.47;4959979;28;20034;-89
2021/12/22 03:46:41;;;;;;;13.52;7.43;;;;;;;-2.72;87.78;92919.38;4960638;28;20054;-89
2021/12/22 03:53:07;;;;;;;15.43;8.52;;;;;;;-2.69;88.04;92930.22;4968857;28;20520;-88
2021/12/22 03:55:49;;;;;;;;;;;;;;;;;;;;;
2021/12/22 03:58:38;;;;;;;15.45;7.97;;;;;;;-2.63;88.53;92939.72;4990720;28;20116;-89
2021/12/22 04:01:24;;;;;;;17.15;7.88;;;;;;;-2.71;88.97;92940.66;4978878;28;20108;-89
2021/12/22 04:04:18;;;;;;;16.08;8.48;;;;;;;-2.59;88.41;92964.78;4964332;28;20046;-88
2021/12/22 04:10:10;;;;;;;;;;;;;;;;;;;;;
2021/12/22 04:12:53;;;;;;;19.52;8.70;;;;;;;-2.82;88.18;92942.03;4979972;28;20435;-88
2021/12/22 04:15:38;;;;;;;18.88;9.73;;;;;;;-2.81;88.79;92943.63;4988104;28;20030;-88
2021/12/22 04:18:46;;;;;;;;;;;;;;;;;;;;;
2021/12/22 04:22:12;;;;;;;;;;;;;;;;;;;;;
2021/12/22 04:25:12;;;;;;;;;;;;;;;;;;;;;
2021/12/22 04:28:24;;;;;;;15.73;7.15;;;;;;;-2.87;87.80;92954.63;4996076;28;20125;-88
2021/12/22 04:31:23;;;;;;;13.02;6.28;;;;;;;-2.88;87.11;92947.13;4990602;28;20034;-89
2021/12/22 04:34:48;;;;;;;12.68;6.43;;;;;;;-2.47;87.29;93025.72;4979198;28;20383;-88
2021/12/22 04:37:33;;;;;;;10.18;5.50;;;;;;;-2.58;86.40;93009.13;4982494;28;20053;-89
2021/12/22 04:40:31;;;;;;;10.75;5.60;;;;;;;-2.89;85.67;92960.94;4982365;28;20039;-89
2021/12/22 04:43:07;;;;;;;13.25;6.28;;;;;;;-2.84;85.71;92969.59;4995134;28;20046;-89
2021/12/22 04:46:16;;;;;;;;;;;;;;;;;;;;;
2021/12/22 04:49:14;;;;;;;10.45;5.25;;;;;;;-2.99;83.78;92951.06;4991761;28;20038;-89
2021/12/22 04:52:15;;;;;;;8.80;4.73;;;;;;;-3.05;82.82;92960.28;4947624;28;20424;-89
2021/12/22 04:55:04;;;;;;;7.80;4.30;;;;;;;-3.08;82.07;92959.88;4961094;28;20047;-89
2021/12/22 04:57:58;;;;;;;;;;;;;;;;;;;;;
2021/12/22 05:01:14;;;;;;;9.25;4.90;;;;;;;-2.68;81.95;93021.50;4979053;28;20089;-88
2021/12/22 05:03:44;;;;;;;9.60;5.10;;;;;;;-2.88;81.95;92994.06;4971709;28;20101;-89
2021/12/22 05:07:08;;;;;;;12.73;5.63;;;;;;;-2.91;82.46;92988.50;4983026;28;20081;-89
2021/12/22 05:10:09;;;;;;;10.98;5.30;;;;;;;-3.16;82.68;92963.38;4969879;28;20057;-89
2021/12/22 05:12:47;;;;;;;9.63;5.32;;;;;;;-3.24;82.21;92954.09;4980536;28;20042;-89
2021/12/22 05:15:40;;;;;;;8.68;4.70;;;;;;;-3.21;81.23;92956.28;4992625;28;20495;-88
2021/12/22 05:18:23;;;;;;;9.65;5.38;;;;;;;-3.16;81.52;92974.41;4944990;28;20039;-88
2021/12/22 05:21:20;;;;;;;12.82;5.18;;;;;;;-3.04;81.67;92992.63;4959236;28;20046;-89
2021/12/22 05:24:28;;;;;;;10.65;4.45;;;;;;;-3.14;80.93;92982.69;4984910;28;20053;-88
2021/12/22 05:27:41;;;;;;;8.52;4.68;;;;;;;-3.04;80.85;92999.47;4944880;28;20182;-89
2021/12/22 05:30:50;;;;;;;;;;;;;;;;;;;;;
2021/12/22 05:33:49;;;;;;;9.25;4.53;;;;;;;-3.21;79.11;92987.00;4980174;28;20496;-88
2021/12/22 05:36:51;;;;;;;7.85;4.10;;;;;;;-3.24;79.00;92978.91;4965077;28;20058;-88
2021/12/22 05:39:36;;;;;;;9.27;4.85;;;;;;;-3.09;79.46;93012.09;4977161;28;20494;-88
2021/12/22 05:42:25;;;;;;;9.98;4.93;;;;;;;-2.86;79.62;93045.09;4993917;28;20515;-88
2021/12/22 05:45:24;;;;;;;;;;;;;;;;;;;;;
2021/12/22 05:51:32;;;;;;;7.00;3.97;;;;;;;-3.32;79.13;92977.28;4981296;28;20050;-89
2021/12/22 05:54:03;;;;;;;8.32;4.05;;;;;;;-3.18;77.95;92998.63;4977747;28;20169;-88
2021/12/22 05:56:39;;;;;;;11.77;4.93;;;;;;;-3.31;78.18;92986.56;4992514;28;20558;-87
2021/12/22 06:00:13;;;;;;;8.68;4.35;;;;;;;-3.37;78.02;92969.41;4978358;28;20047;-86
2021/12/22 06:03:02;;;;;;;6.63;3.72;;;;;;;-2.95;77.98;93042.72;4971889;28;20058;-87
2021/12/22 06:05:37;;;;;;;8.10;3.88;;;;;;;-3.25;78.07;92996.03;4973111;28;20054;-87
2021/12/22 06:08:18;;;;;;;;;;;;;;;;;;;;;
2021/12/22 06:11:14;;;;;;;9.57;4.22;;;;;;;-3.41;78.13;92983.56;4982571;28;20038;-86
2021/12/22 06:13:47;;;;;;;8.63;4.53;;;;;;;-3.15;78.71;93024.66;4993029;28;20035;-87
2021/12/22 06:16:23;;;;;;;9.60;4.95;;;;;;;-3.41;78.55;92991.22;4976284;28;20034;-87
2021/12/22 06:19:03;;;;;;;9.85;4.65;;;;;;;-3.14;78.85;93031.34;4992678;28;20038;-88
2021/12/22 06:21:46;;;;;;;7.40;4.53;;;;;;;-3.16;78.90;93030.75;4978846;28;20043;-87
2021/12/22 06:24:17;;;;;;;;;;;;;;;-2.99;78.64;93058.66;4977746;28;20035;-86
2021/12/22 06:26:45;;;;;;;8.95;4.07;;;;;;;-3.36;78.95;93004.25;4994008;28;20065;-86
2021/12/22 06:29:12;;;;;;;9.55;5.18;;;;;;;-3.04;79.20;93054.09;4945718;28;20476;-85
2021/12/22 06:31:38;;;;;;;13.73;5.45;;;;;;;-3.19;79.10;93028.59;4961298;28;20118;-86
2021/12/22 06:34:06;;;;;;;11.52;5.70;;;;;;;-3.21;79.55;93029.75;4961371;28;20431;-85
2021/12/22 06:36:35;;;;;;;11.38;6.28;;;;;;;-3.19;79.95;93033.72;4961752;28;20155;-86
2021/12/22 06:39:04;;;;;;;11.63;6.43;;;;;;;-3.44;80.16;92994.97;4978746;28;20057;-85
2021/12/22 06:41:31;;;;;;;13.70;7.35;;;;;;;-3.40;80.44;93005.59;4960886;28;20049;-85
2021/12/22 06:43:57;;;;;;;15.27;6.75;;;;;;;-3.55;80.43;92990.38;4977469;28;20095;-85
2021/12/22 06:46:22;;;;;;;11.43;7.18;;;;;;;-3.40;81.37;93011.53;4977957;28;20050;-85
2021/12/22 06:48:50;;;;;;;12.13;6.30;;;;;;;-3.27;81.90;93043.31;4978336;28;20026;-85
2021/12/22 06:51:19;;;;;;;10.93;6.07;;;;;;;-3.20;81.79;93052.63;4977241;28;20492;-85
2021/12/22 06:53:45;;;;;;;8.43;5.45;;;;;;;-3.01;81.74;93081.09;4977173;28;20109;-86
2021/12/22 06:56:11;;;;;;;12.95;5.82;;;;;;;-2.97;81.90;93084.88;4961029;28;20125;-86
2021/12/22 06:58:39;;;;;;;9.05;5.28;;;;;;;-2.94;81.82;93092.16;4995323;28;20110;-84
2021/12/22 07:01:05;;;;;;;10.82;6.00;;;;;;;-3.08;82.13;93063.13;4996522;28;20117;-84
2021/12/22 07:03:30;;;;;;;13.05;6.75;;;;;;;-3.08;81.26;93057.22;4997023;28;20488;-85
2021/12/22 07:05:56;;;;;;;15.48;6.40;;;;;;;-2.90;81.71;93087.44;4979588;28;20096;-84
2021/12/22 07:08:22;;;;;;;11.93;6.07;;;;;;;-2.98;81.67;93070.47;4995895;28;20437;-84
2021/12/22 07:10:48;;;;;;;34.42;7.45;;;;;;;-2.86;82.14;93092.03;4959301;28;20063;-83
2021/12/22 07:13:14;;;;;;;17.35;7.15;;;;;;;-2.84;81.46;93095.16;4958663;28;20042;-83
2021/12/22 07:15:43;;;;;;;9.68;5.63;;;;;;;-2.85;81.39;93085.13;4989306;28;20045;-84
2021/12/22 07:18:11;;;;;;;12.40;5.90;;;;;;;-2.88;81.22;93081.16;4995900;28;20040;-84
2021/12/22 07:20:37;;;;;;;10.77;5.78;;;;;;;-2.76;81.55;93097.56;4978698;28;20138;-84
2021/12/22 07:23:03;;;;;;;10.10;5.57;;;;;;;-2.65;81.61;93105.72;4994722;28;20379;-84
2021/12/22 07:25:29;;;;;;;9.93;5.22;;;;;;;-2.60;81.21;93100.81;4994956;28;20159;-84
2021/12/22 07:27:55;;;;;;;10.80;6.25;;;;;;;-2.70;80.29;93072.97;4995230;28;20038;-84
2021/12/22 07:30:20;;;;;;;10.68;5.68;;;;;;;-1.84;78.42;93087.03;4962617;28;20853;-84
2021/12/22 07:32:46;;;;;;;14.00;6.85;;;;;;;-0.15;74.53;93101.00;4978868;28;20039;-84
2021/12/22 07:35:28;;;;;;;11.00;6.28;;;;;;;1.54;68.17;93077.84;4995454;28;20053;-85
2021/12/22 07:38:06;;;;;;;15.50;7.03;;;;;;;3.15;63.65;93097.84;4995492;28;20487;-84
2021/12/22 07:40:31;;;;;;;10.82;6.28;;;;;;;4.31;59.93;93090.84;4979335;28;20038;-85
2021/12/22 07:42:57;;;;;;;16.10;6.65;;;;;;;5.30;54.57;93057.63;4995063;28;20038;-85
2021/12/22 07:45:23;;;;;;;9.88;5.60;;;;;;;6.27;53.63;93095.19;4963429;28;20662;-84
2021/12/22 07:47:48;;;;;;;13.32;6.22;;;;;;;7.17;51.58;93103.25;4995731;28;20053;-85
2021/12/22 07:50:14;;;;;;;11.38;5.82;;;;;;;8.01;49.04;93098.25;4963167;28;20155;-85
2021/12/22 07:52:39;;;;;;;10.32;5.65;;;;;;;8.75;46.23;93105.00;4995794;28;20034;-86
2021/12/22 07:55:05;;;;;;;9.77;5.28;;;;;;;9.52;44.14;93097.94;4996022;28;20487;-85
2021/12/22 07:57:31;;;;;;;12.82;6.35;;;;;;;10.33;41.00;93100.59;4981113;28;20035;-85
2021/12/22 07:59:57;;;;;;;11.60;5.95;;;;;;;10.72;40.21;93105.13;4998548;28;20082;-93
2021/12/22 08:02:22;;;;;;;13.90;6.75;;;;;;;11.54;37.74;93096.63;4985229;28;20038;-95
2021/12/22 08:04:48;;;;;;;13.57;6.20;;;;;;;12.20;36.26;93098.56;4993262;28;20475;-85
2021/12/22 08:07:13;;;;;;;9.48;5.82;;;;;;;12.50;35.43;93086.94;4995319;28;20042;-85
2021/12/22 08:09:39;;;;;;;10.57;5.90;;;;;;;13.02;34.01;93092.25;4994845;28;20380;-85
2021/12/22 08:12:05;;;;;;;10.85;6.50;;;;;;;14.06;32.14;93110.53;4977860;28;20498;-88
2021/12/22 08:14:32;;;;;;;11.77;6.47;;;;;;;14.40;32.04;93090.94;4977612;28;20042;-86
2021/12/22 08:16:58;;;;;;;9.98;5.88;;;;;;;15.01;30.02;93107.31;4994291;28;20061;-86
2021/12/22 08:19:23;;;;;;;11.63;5.75;;;;;;;15.39;28.81;93111.16;4994518;28;20137;-87
2021/12/22 08:21:49;;;;;;;10.23;5.80;;;;;;;15.96;28.28;93109.81;4994627;28;20031;-86
2021/12/22 08:24:14;;;;;;;8.15;5.43;;;;;;;16.67;26.52;93115.03;4994542;28;20587;-85
2021/12/22 08:26:41;;;;;;;8.55;5.40;;;;;;;17.12;25.85;93109.50;4958748;28;20030;-85
2021/12/22 08:29:06;;;;;;;10.60;5.43;;;;;;;16.36;25.97;93083.41;4987240;28;20438;-86
2021/12/22 08:31:32;;;;;;;8.30;5.45;;;;;;;17.10;25.92;93116.97;4973429;28;20031;-86
2021/12/22 08:33:57;;;;;;;19.75;11.35;;;;;;;17.06;25.31;93111.50;4974876;28;20081;-85
2021/12/22 08:39:09;;;;;;;12.05;5.70;;;;;;;16.76;25.86;93086.75;4993181;28;20504;-88
2021/12/22 08:41:47;;;;;;;11.10;6.03;;;;;;;17.15;25.29;93086.94;4993805;28;20038;-85
2021/12/22 08:44:21;;;;;;;11.85;7.20;;;;;;;15.94;27.44;93099.56;4976978;28;20050;-85
2021/12/22 08:46:50;;;;;;;11.18;6.90;;;;;;;15.24;28.15;93074.59;4994513;28;20063;-86
2021/12/22 08:49:18;;;;;;;11.95;8.02;;;;;;;14.65;29.55;93079.88;4977109;28;20111;-85
2021/12/22 08:51:47;;;;;;;16.83;7.43;;;;;;;13.68;32.02;93137.78;4993191;28;20550;-87
2021/12/22 08:54:13;;;;;;;21.67;8.10;;;;;;;13.87;30.94;93106.16;4992766;28;20500;-85
2021/12/22 08:56:40;;;;;;;10.75;6.90;;;;;;;14.09;31.00;93086.25;4986372;28;20483;-85
2021/12/22 08:59:12;;;;;;;10.82;6.88;;;;;;;13.33;31.25;93128.63;4975895;28;20462;-85
2021/12/22 09:01:38;;;;;;;11.70;6.82;;;;;;;12.34;32.81;93132.03;4992746;28;20054;-86
2021/12/22 09:04:08;;;;;;;12.52;7.50;;;;;;;11.60;33.73;93142.72;4992386;28;20038;-88
2021/12/22 09:07:12;;;;;;;12.65;7.03;;;;;;;7.44;43.96;93160.50;4990892;28;20057;-89
2021/12/22 09:09:40;;;;;;;13.73;7.07;;;;;;;5.90;47.91;93124.38;4980899;28;20503;-88
2021/12/22 09:12:41;;;;;;;15.52;8.05;;;;;;;4.57;51.87;93123.19;4973243;28;20039;-89
2021/12/22 09:15:24;;;;;;;15.38;7.22;;;;;;;4.92;52.14;93108.44;4978371;28;20037;-89
2021/12/22 09:18:13;;;;;;;9.60;5.22;;;;;;;4.33;51.74;93108.75;4961495;28;20633;-88
2021/12/22 09:21:36;;;;;;;17.52;7.30;;;;;;;4.25;54.51;93135.81;4988027;28;20046;-88
2021/12/22 09:24:14;;;;;;;13.18;7.00;;;;;;;4.21;52.95;93142.50;4976561;28;20039;-89
2021/12/22 09:27:28;;;;;;;12.80;7.10;;;;;;;4.23;54.66;93119.72;4992733;28;20042;-88
2021/12/22 09:30:01;;;;;;;15.30;7.57;;;;;;;3.73;57.42;93125.50;4992956;28;20057;-89
2021/12/22 09:32:40;;;;;;;10.20;6.00;;;;;;;3.91;53.89;93182.31;4976425;28;20046;-88
2021/12/22 09:35:21;;;;;;;13.32;6.85;;;;;;;3.41;55.15;93138.81;4969963;28;20077;-88
2021/12/22 09:37:57;;;;;;;10.10;5.70;;;;;;;3.79;56.24;93186.75;4966848;28;20060;-88
2021/12/22 09:41:03;;;;;;;13.13;5.55;;;;;;;4.27;51.70;93182.25;4978352;28;20279;-88
2021/12/22 09:43:42;;;;;;;12.25;5.28;;;;;;;3.70;50.99;93151.84;4967360;28;20049;-88
2021/12/22 09:49:34;;;;;;;;;;;;;;;;;;;;;
2021/12/22 09:52:17;;;;;;;10.52;5.15;;;;;;;3.40;55.98;93173.47;4979961;28;20038;-87
2021/12/22 09:55:01;;;;;;;12.35;7.30;;;;;;;3.42;58.78;93206.88;4976338;28;20526;-87
2021/12/22 09:57:48;;;;;;;12.65;6.38;;;;;;;3.45;57.22;93201.28;5001439;28;20042;-88
2021/12/22 10:00:21;;;;;;;12.63;6.85;;;;;;;2.92;58.03;93140.78;4942126;28;20550;-87
2021/12/22 10:02:50;;;;;;;10.55;6.03;;;;;;;3.08;55.17;93145.31;4975876;28;20064;-87
2021/12/22 10:05:36;;;;;;;13.52;5.95;;;;;;;2.69;57.54;93147.50;4977717;28;20407;-87
2021/12/22 10:08:38;;;;;;;;;;;;;;;;;;;;;
2021/12/22 10:11:17;;;;;;;12.23;5.95;;;;;;;3.01;57.00;93149.81;4972716;28;20049;-88
2021/12/22 10:13:48;;;;;;;13.33;5.60;;;;;;;2.80;56.48;93147.75;4957609;28;20035;-88
2021/12/22 10:16:46;;;;;;;8.85;5.22;;;;;;;3.20;56.24;93152.28;4973121;28;20293;-88
2021/12/22 10:19:26;;;;;;;12.15;5.97;;;;;;;3.66;56.89;93192.94;4975961;28;20500;-88
2021/12/22 10:22:19;;;;;;;11.45;5.68;;;;;;;3.78;55.36;93143.72;4978309;28;20065;-88
2021/12/22 10:25:11;;;;;;;13.40;6.18;;;;;;;3.24;57.25;93148.25;4960346;28;20069;-88
2021/12/22 10:28:19;;;;;;;;;;;;;;;;;;;;;
2021/12/22 10:31:06;;;;;;;9.52;5.28;;;;;;;3.17;57.47;93157.91;4971468;28;20492;-87
2021/12/22 10:33:55;;;;;;;;;;;;;;;;;;;;;
2021/12/22 10:36:33;;;;;;;;;;;;;;;;;;;;;
2021/12/22 10:39:20;;;;;;;27.17;13.18;;;;;;;3.02;60.06;93146.22;4992052;28;20129;-89
2021/12/22 10:41:52;;;;;;;16.73;7.50;;;;;;;3.24;60.29;93141.28;4992163;28;20054;-89
2021/12/22 10:51:08;;;;;;;15.80;8.20;;;;;;;3.97;57.16;93137.38;4986921;28;20492;-88
2021/12/22 10:53:49;;;;;;;17.90;10.32;;;;;;;3.91;57.12;93178.94;4971964;28;20042;-88
2021/12/22 10:56:36;;;;;;;12.20;6.40;;;;;;;3.44;57.73;93122.03;4973957;28;20035;-90
2021/12/22 11:00:02;;;;;;;17.85;8.10;;;;;;;4.03;57.36;93153.00;4970821;28;20053;-88
2021/12/22 11:03:17;;;;;;;14.40;7.65;;;;;;;4.81;57.13;93182.72;4963689;28;20707;-89
2021/12/22 11:06:06;;;;;;;;;;;;;;;;;;;;;
2021/12/22 11:09:13;;;;;;;16.60;8.88;;;;;;;3.52;58.45;93134.63;4975678;28;20096;-89
2021/12/22 11:12:00;;;;;;;15.52;8.55;;;;;;;3.83;58.05;93163.75;4985120;28;20225;-89
2021/12/22 11:14:47;;;;;;;;;;;;;;;;;;;;;
2021/12/22 11:17:31;;;;;;;;;;;;;;;;;;;;;
2021/12/22 11:20:08;;;;;;;19.80;9.90;;;;;;;3.06;60.99;93126.66;5000154;28;20042;-89
2021/12/22 11:23:08;;;;;;;;;;;;;;;;;;;;;
2021/12/22 11:26:05;;;;;;;24.83;6.80;;;;;;;3.21;61.00;93157.25;4997066;28;20076;-90
2021/12/22 11:28:44;;;;;;;12.65;7.15;;;;;;;2.88;61.02;93130.13;4971512;28;20042;-88
2021/12/22 11:31:15;;;;;;;15.63;6.95;;;;;;;3.98;57.87;93145.94;4960932;28;20066;-91
2021/12/22 11:33:55;;;;;;;15.10;7.22;;;;;;;3.24;59.08;93123.19;4981451;28;20038;-89
2021/12/22 11:36:30;;;;;;;10.55;5.75;;;;;;;3.50;60.21;93186.63;4998079;28;20042;-89
2021/12/22 11:39:01;;;;;;;13.65;6.60;;;;;;;3.72;59.23;93122.13;4966359;28;20133;-88
2021/12/22 11:41:55;;;;;;;15.50;7.65;;;;;;;3.50;58.80;93128.91;5011939;28;20093;-93
2021/12/22 11:44:47;;;;;;;20.17;9.13;;;;;;;3.74;59.57;93184.84;5006631;23;20138;-77
2021/12/22 11:47:16;;;;;;;15.80;7.50;;;;;;;4.30;59.93;93181.78;4960705;28;20058;-78
2021/12/22 11:49:59;;;;;;;14.57;8.32;;;;;;;4.49;57.53;93180.59;4942631;28;20457;-78
2021/12/22 11:52:32;;;;;;;16.98;8.55;;;;;;;4.98;56.51;93183.53;4978421;28;20043;-78
2021/12/22 11:55:14;;;;;;;15.38;8.15;;;;;;;4.67;57.09;93166.66;4976999;28;20488;-78
2021/12/22 11:57:41;;;;;;;19.77;9.93;;;;;;;4.67;57.64;93171.84;4940591;29;20047;-78
2021/12/22 12:00:23;;;;;;;15.25;8.65;;;;;;;4.62;57.91;93161.41;4975560;28;20031;-77
2021/12/22 12:02:49;;;;;;;13.18;7.32;;;;;;;3.41;61.09;93162.09;4965266;28;20388;-75
2021/12/22 12:05:21;;;;;;;18.48;9.30;;;;;;;3.76;60.65;93166.50;4952468;28;20019;-76
2021/12/22 12:08:02;;;;;;;15.35;8.23;;;;;;;3.75;60.81;93160.50;4954673;29;20035;-76
2021/12/22 12:10:39;;;;;;;16.55;7.70;;;;;;;4.13;59.98;93155.81;4954847;29;20062;-76
2021/12/22 12:13:15;;;;;;;14.55;8.63;;;;;;;3.75;61.48;93150.13;4933589;29;20043;-76
2021/12/22 12:21:55;;;;;;;16.95;9.00;;;;;;;4.18;61.00;93156.69;4950223;29;20038;-76
2021/12/22 12:24:45;;;;;;;10.95;6.15;;;;;;;3.75;63.13;93157.13;4922454;29;20031;-77
2021/12/22 12:27:30;;;;;;;12.82;6.47;;;;;;;4.24;61.66;93155.00;4923095;29;20035;-78
2021/12/22 12:30:17;;;;;;;17.75;10.07;;;;;;;4.07;61.84;93161.91;4925188;29;20049;-79
2021/12/22 12:32:45;;;;;;;14.93;7.97;;;;;;;4.46;60.92;93149.16;4938627;29;20082;-78
2021/12/22 12:35:21;;;;;;;22.25;9.80;;;;;;;4.35;61.80;93146.41;4931875;29;20106;-78
2021/12/22 12:37:58;;;;;;;10.35;6.45;;;;;;;3.73;63.77;93141.03;4957714;29;20043;-78
2021/12/22 12:41:00;;;;;;;20.13;9.98;;;;;;;3.45;64.72;93142.53;4923900;29;20034;-79
2021/12/22 12:43:41;;;;;;;17.33;9.68;;;;;;;3.79;64.50;93139.34;4922854;29;20322;-78
2021/12/22 12:46:23;;;;;;;14.80;8.27;;;;;;;3.80;63.96;93141.69;4941733;29;20126;-77
2021/12/22 12:49:04;;;;;;;8.90;4.10;;;;;;;3.32;65.15;93138.34;4942604;28;20039;-76
2021/12/22 12:51:35;;;;;;;11.23;6.40;;;;;;;3.09;66.07;93138.34;4938873;29;20490;-78
2021/12/22 12:54:05;;;;;;;17.77;9.10;;;;;;;2.89;67.21;93144.63;4950155;29;20035;-78
2021/12/22 12:56:39;;;;;;;15.73;9.05;;;;;;;3.60;65.41;93141.25;4937531;29;20459;-78
2021/12/22 12:59:09;;;;;;;13.68;7.70;;;;;;;3.36;65.65;93143.09;4937752;28;20063;-79
2021/12/22 13:01:47;;;;;;;10.60;5.97;;;;;;;3.06;66.73;93146.53;4941264;29;20059;-77
2021/12/22 13:04:26;;;;;;;16.25;8.90;;;;;;;3.77;65.18;93142.16;4939367;29;20042;-80
2021/12/22 13:07:04;;;;;;;23.30;8.20;;;;;;;4.07;63.89;93141.19;4939259;29;20134;-83
2021/12/22 13:09:49;;;;;;;14.07;7.45;;;;;;;4.00;62.70;93130.16;4949772;29;20392;-78
2021/12/22 13:12:32;;;;;;;17.23;8.55;;;;;;;4.28;62.39;93142.34;4955721;29;20039;-77
2021/12/22 13:17:49;;;;;;;13.75;7.93;;;;;;;3.47;65.26;93143.09;4937699;29;20043;-78
2021/12/22 13:20:35;;;;;;;16.00;9.35;;;;;;;3.91;64.72;93147.88;4955574;29;20174;-77
2021/12/22 13:23:04;;;;;;;16.00;9.20;;;;;;;4.45;63.29;93148.38;4954876;28;20126;-77
2021/12/22 13:25:36;;;;;;;17.80;9.85;;;;;;;4.41;63.61;93141.28;4955694;28;20345;-79
2021/12/22 13:28:11;;;;;;;18.38;10.10;;;;;;;4.36;63.78;93144.59;4938124;28;20038;-78
2021/12/22 13:30:55;;;;;;;18.77;10.55;;;;;;;4.35;64.37;93141.22;4936629;29;20031;-77
2021/12/22 13:33:34;;;;;;;14.80;7.88;;;;;;;4.13;65.26;93138.47;4956051;29;20035;-78
2021/12/22 13:36:18;;;;;;;21.15;7.13;;;;;;;4.26;65.18;93141.81;4955104;29;20059;-79
2021/12/22 13:38:55;;;;;;;18.75;11.05;;;;;;;3.82;65.70;93146.66;4954239;28;20039;-76
2021/12/22 13:41:26;;;;;;;19.63;10.75;;;;;;;4.06;65.49;93149.97;4954118;28;20053;-79
2021/12/22 13:43:52;;;;;;;23.33;12.73;;;;;;;3.69;67.61;93145.09;4955649;28;20039;-77
2021/12/22 13:46:26;;;;;;;16.15;8.88;;;;;;;4.41;64.75;93141.28;4930152;29;20063;-77
2021/12/22 13:49:06;;;;;;;12.55;5.65;;;;;;;4.62;63.25;93143.25;4935876;29;20032;-78
2021/12/22 13:51:37;;;;;;;17.92;9.02;;;;;;;4.97;62.57;93139.66;4932879;28;20039;-78
2021/12/22 13:54:09;;;;;;;16.10;7.78;;;;;;;3.85;65.57;93143.59;4937514;29;20038;-77
2021/12/22 13:56:36;;;;;;;15.07;6.05;;;;;;;3.75;66.13;93155.31;4954857;29;20075;-76
2021/12/22 13:59:10;;;;;;;16.88;10.50;;;;;;;3.91;66.29;93150.47;4953157;28;20066;-78
2021/12/22 14:01:58;;;;;;;17.42;8.43;;;;;;;4.20;65.55;93150.50;4955198;28;20038;-78
2021/12/22 14:04:38;;;;;;;15.90;9.57;;;;;;;4.45;63.88;93152.78;4954752;28;20102;-77
2021/12/22 14:07:21;;;;;;;15.05;7.93;;;;;;;4.25;64.85;93143.59;4955422;28;20047;-78
2021/12/22 14:09:52;;;;;;;13.57;7.70;;;;;;;3.79;65.76;93145.31;4954055;28;20062;-78
2021/12/22 14:12:27;;;;;;;19.80;10.88;;;;;;;3.59;67.51;93150.06;4950526;28;20592;-78
2021/12/22 14:15:00;;;;;;;15.82;8.30;;;;;;;3.80;66.77;93148.69;4954624;29;20043;-77
2021/12/22 14:17:35;;;;;;;13.32;7.70;;;;;;;3.41;67.70;93145.78;4953669;29;20046;-79
2021/12/22 14:20:09;;;;;;;13.50;7.15;;;;;;;2.99;68.57;93125.97;4953646;29;20038;-78
2021/12/22 14:22:37;;;;;;;15.88;8.40;;;;;;;3.06;69.13;93151.72;4953417;28;20035;-79
2021/12/22 14:25:20;;;;;;;20.48;11.18;;;;;;;3.54;67.35;93142.97;4938369;29;20420;-80